Terminal Aerodrome Forecast
Issued by NWS

Home | Current Version | Previous Version | Graphics & Text | Print | Product List | Glossary Off
Versions: 1 2 3 4 5 6 7 8 9 10 11 12 13 14 15 16 17

000
FTUS43 KDDC 250520
TAFHYS
TAF
KHYS 250520Z 2506/2606 03006KT P6SM VCTS BKN050CB
     FM250800 02007KT P6SM VCTS OVC025CB
     FM251500 03007KT P6SM OVC035 PROB30 2515/2518 4SM -TSRA
      OVC015CB
     FM260300 06005KT P6SM OVC015=

USA.gov is the U.S. government's official web portal to all federal, state and local government web resources and services.